La Crosse, Virginia
Current Conditions -  °F | °C
As of 11:36 AM on Sunday 21 Dec 2014 (Local Time) from KAVC Reporting Station
Overcast Overcast  
Wind Chill: 40°   Ceiling: 4600
Heat Index: 40°   Visibility: 10mi
Dew Point: 29°   Wind: 3mph
Humidity: 64%   Direction: 50°NE
Pressure: 30.37"   Gusts: NA
Location:  36.7°N, 78.1°W
Report Text: KAVC 211636Z AUTO 05003KT 10SM BKN046 OVC065 05/M02 A3037 RMK AO2 T00471016
Loading
Personal Weather Stations






























Interactive Weather Map New forecast layout! Learn more

10-Day Weather Forecast

Advertisements
Track Severe Weather on mobile